createdAt,value
2022-09-21T00:02:26.395Z,3.90
2022-09-21T00:07:29.167Z,4.40
2022-09-21T00:12:31.854Z,4.30
2022-09-21T00:17:35.773Z,4.70
2022-09-21T00:22:38.592Z,7.20
2022-09-21T00:27:42.212Z,2.80
2022-09-21T00:32:44.912Z,3.70
2022-09-21T00:37:47.611Z,4.40
2022-09-21T00:42:50.826Z,4.40
2022-09-21T00:47:53.727Z,5.00
2022-09-21T00:52:58.907Z,4.20
2022-09-21T00:58:09.576Z,5.00
2022-09-21T01:03:13.725Z,2.50
2022-09-21T01:08:18.550Z,3.20
2022-09-21T01:13:54.683Z,3.30
2022-09-21T01:19:18.667Z,2.80
2022-09-21T01:24:40.699Z,2.90
2022-09-21T01:30:15.535Z,1.80
2022-09-21T01:35:23.150Z,2.00
2022-09-21T01:40:35.653Z,3.50
2022-09-21T01:45:43.986Z,2.20
2022-09-21T01:50:51.993Z,1.70
2022-09-21T01:56:25.965Z,3.20
2022-09-21T02:01:32.259Z,1.30
2022-09-21T02:06:35.984Z,2.30
2022-09-21T02:11:42.681Z,3.50
2022-09-21T02:17:06.170Z,1.90
2022-09-21T02:22:17.859Z,2.60
2022-09-21T02:27:37.309Z,2.20
2022-09-21T02:32:52.132Z,3.30
2022-09-21T02:38:06.315Z,1.70
2022-09-21T02:43:39.518Z,2.30
2022-09-21T02:48:53.897Z,3.90
2022-09-21T02:53:58.436Z,2.80
2022-09-21T02:59:04.801Z,3.70
2022-09-21T03:04:07.711Z,4.70
2022-09-21T03:09:10.397Z,5.90
2022-09-21T03:14:13.117Z,4.60
2022-09-21T03:19:15.856Z,4.70
2022-09-21T03:24:38.588Z,2.50
2022-09-21T03:29:41.264Z,3.60
2022-09-21T03:34:43.951Z,3.00
2022-09-21T03:39:47.212Z,3.30
2022-09-21T03:44:49.898Z,4.90
2022-09-21T03:49:52.534Z,3.20
2022-09-21T03:54:55.610Z,4.30
2022-09-21T03:59:58.327Z,2.70
2022-09-21T04:05:00.979Z,3.00
2022-09-21T04:10:13.032Z,3.30
2022-09-21T04:15:22.038Z,3.60
2022-09-21T04:20:25.121Z,4.40
2022-09-21T04:25:28.191Z,4.70
2022-09-21T04:30:34.332Z,2.80
2022-09-21T04:35:40.434Z,4.00
2022-09-21T04:40:43.349Z,2.50
2022-09-21T04:45:46.248Z,5.30
2022-09-21T04:50:49.891Z,4.40
2022-09-21T04:55:52.788Z,3.50
2022-09-21T05:00:56.813Z,4.00
2022-09-21T05:05:59.947Z,4.90
2022-09-21T05:11:02.708Z,5.80
2022-09-21T05:16:06.381Z,10.40
2022-09-21T05:21:11.257Z,9.60
2022-09-21T05:26:13.882Z,6.70
2022-09-21T05:31:42.537Z,9.90
2022-09-21T05:37:05.079Z,8.20
2022-09-21T05:42:11.029Z,12.50
2022-09-21T05:47:16.874Z,12.40
2022-09-21T05:52:25.639Z,12.80
2022-09-21T05:57:30.817Z,9.30
2022-09-21T06:02:55.354Z,6.50
2022-09-21T06:08:01.329Z,6.50
2022-09-21T06:13:13.718Z,4.60
2022-09-21T06:18:38.260Z,3.90
2022-09-21T06:23:43.700Z,3.00
2022-09-21T06:28:46.407Z,3.60
2022-09-21T06:33:49.181Z,2.80
2022-09-21T06:38:52.091Z,3.90
2022-09-21T06:43:56.828Z,2.20
2022-09-21T06:49:00.136Z,3.80
2022-09-21T06:54:02.962Z,4.60
2022-09-21T06:59:07.000Z,3.00
2022-09-21T07:04:10.187Z,1.70
2022-09-21T07:14:35.485Z,2.50
2022-09-21T07:19:38.120Z,3.10
2022-09-21T07:24:40.848Z,5.10
2022-09-21T07:29:43.620Z,5.00
2022-09-21T07:34:46.724Z,1.50
2022-09-21T07:39:49.727Z,2.50
2022-09-21T07:45:03.266Z,2.60
2022-09-21T07:50:07.152Z,3.30
2022-09-21T07:55:10.062Z,2.00
2022-09-21T08:00:13.439Z,1.90
2022-09-21T08:05:16.672Z,2.10
2022-09-21T08:10:19.368Z,3.00
2022-09-21T08:15:46.762Z,3.50
2022-09-21T08:20:45.039Z,2.30
2022-09-21T08:25:48.558Z,1.80
2022-09-21T08:30:51.256Z,2.00
2022-09-21T08:35:55.720Z,2.60
2022-09-21T08:41:01.294Z,4.80
2022-09-21T08:46:07.441Z,1.70
2022-09-21T08:51:16.012Z,2.30
2022-09-21T08:56:22.625Z,3.50
2022-09-21T09:06:55.817Z,5.80
2022-09-21T09:12:40.394Z,4.80
2022-09-21T09:17:43.030Z,6.60
2022-09-21T09:22:51.752Z,3.60
2022-09-21T09:27:59.348Z,2.20
2022-09-21T09:33:19.356Z,2.30
2022-09-21T09:38:24.934Z,3.50
2022-09-21T09:43:27.747Z,4.80
2022-09-21T09:49:24.540Z,2.90
2022-09-21T09:54:29.803Z,1.40
2022-09-21T09:59:44.837Z,2.20
2022-09-21T10:05:06.311Z,3.40
2022-09-21T10:10:29.351Z,4.40
2022-09-21T10:15:32.261Z,3.10
2022-09-21T10:20:35.167Z,2.00
2022-09-21T10:25:40.203Z,1.80
2022-09-21T10:30:43.330Z,4.30
2022-09-21T10:35:51.527Z,2.30
2022-09-21T10:40:54.746Z,3.30
2022-09-21T10:45:58.068Z,6.60
2022-09-21T10:51:01.031Z,2.70
2022-09-21T10:56:19.370Z,2.10
2022-09-21T11:01:23.693Z,1.30
2022-09-21T11:06:38.112Z,2.30
2022-09-21T11:11:58.191Z,3.70
2022-09-21T11:17:31.500Z,2.00
2022-09-21T11:22:57.690Z,1.30
2022-09-21T11:28:13.401Z,2.00
2022-09-21T11:33:42.717Z,1.50
2022-09-21T11:39:33.477Z,4.00
2022-09-21T11:44:49.729Z,2.10
2022-09-21T11:56:03.964Z,1.50
2022-09-21T12:01:42.504Z,4.30
2022-09-21T12:07:15.639Z,2.80
2022-09-21T12:12:57.371Z,1.50
2022-09-21T12:18:10.017Z,1.40
2022-09-21T12:23:21.887Z,3.60
2022-09-21T12:28:29.905Z,3.70
2022-09-21T12:33:53.579Z,2.90
2022-09-21T12:39:07.688Z,1.70
2022-09-21T12:44:18.735Z,1.60
2022-09-21T12:49:29.845Z,1.20
2022-09-21T12:54:43.882Z,2.90
2022-09-21T13:00:01.819Z,3.80
2022-09-21T13:05:13.514Z,3.90
2022-09-21T13:10:41.306Z,2.20
2022-09-21T13:15:48.506Z,2.10
2022-09-21T13:20:52.328Z,4.50
2022-09-21T13:26:05.001Z,3.30
2022-09-21T13:31:41.363Z,1.80
2022-09-21T13:36:37.186Z,3.40
2022-09-21T13:41:59.395Z,7.70
2022-09-21T13:47:02.757Z,3.50
2022-09-21T13:52:14.520Z,0.90
2022-09-21T13:57:27.974Z,1.20
2022-09-21T14:02:35.195Z,1.80
2022-09-21T14:12:50.556Z,3.20
2022-09-21T14:18:37.081Z,4.20
2022-09-21T14:23:40.249Z,3.60
2022-09-21T14:28:51.398Z,4.40
2022-09-21T14:34:02.563Z,4.30
2022-09-21T14:39:14.194Z,11.10
2022-09-21T14:44:21.787Z,4.90
2022-09-21T14:49:32.909Z,11.10
2022-09-21T14:55:15.853Z,6.80
2022-09-21T15:00:26.367Z,5.00
2022-09-21T15:05:43.161Z,5.60
2022-09-21T15:10:59.997Z,5.40
2022-09-21T15:16:17.972Z,10.00
2022-09-21T15:21:30.405Z,4.80
2022-09-21T15:26:34.511Z,14.10
2022-09-21T15:31:40.408Z,6.10
2022-09-21T15:36:44.156Z,3.80
2022-09-21T15:41:49.460Z,4.10
2022-09-21T15:47:01.265Z,1.90
2022-09-21T15:52:22.686Z,2.50
2022-09-21T15:57:36.803Z,6.60
2022-09-21T16:02:43.465Z,17.20
2022-09-21T16:07:46.172Z,8.20
2022-09-21T16:12:48.839Z,5.10
2022-09-21T16:18:07.233Z,5.10
2022-09-21T16:23:17.491Z,4.70
2022-09-21T16:28:20.100Z,7.40
2022-09-21T16:33:49.035Z,7.90
2022-09-21T16:38:56.587Z,17.70
2022-09-21T16:44:00.578Z,24.40
2022-09-21T16:49:04.176Z,25.20
2022-09-21T16:54:08.721Z,27.70
2022-09-21T16:59:21.776Z,22.10
2022-09-21T17:04:27.981Z,24.60
2022-09-21T17:09:38.524Z,21.20
2022-09-21T17:14:46.388Z,11.40
2022-09-21T17:19:52.032Z,15.00
2022-09-21T17:24:57.466Z,19.70
2022-09-21T17:30:03.531Z,21.50
2022-09-21T17:35:25.326Z,14.40
2022-09-21T17:40:29.954Z,9.30
2022-09-21T17:45:41.144Z,8.60
2022-09-21T17:50:44.044Z,16.80
2022-09-21T17:55:54.619Z,30.40
2022-09-21T18:01:16.745Z,23.40
2022-09-21T18:06:20.106Z,13.00
2022-09-21T18:12:07.117Z,14.80
2022-09-21T18:17:36.765Z,12.90
2022-09-21T18:22:45.409Z,11.80
2022-09-21T18:27:49.497Z,16.40
2022-09-21T18:32:52.046Z,12.00
2022-09-21T18:38:19.407Z,12.40
2022-09-21T18:43:28.530Z,15.90
2022-09-21T18:49:09.472Z,15.00
2022-09-21T18:54:20.044Z,13.80
2022-09-21T18:59:23.177Z,9.30
2022-09-21T19:04:26.675Z,8.80
2022-09-21T19:09:55.715Z,8.80
2022-09-21T19:15:12.409Z,10.20
2022-09-21T19:21:06.714Z,14.80
2022-09-21T19:26:29.739Z,21.20
2022-09-21T19:31:33.231Z,24.90
2022-09-21T19:36:35.981Z,19.90
2022-09-21T19:41:51.097Z,6.00
2022-09-21T19:46:59.292Z,7.10
2022-09-21T19:52:05.000Z,12.50
2022-09-21T19:57:33.701Z,8.90
2022-09-21T20:02:45.577Z,7.90
2022-09-21T20:08:04.323Z,8.40
2022-09-21T20:13:25.752Z,12.90
2022-09-21T20:18:40.798Z,9.60
2022-09-21T20:23:45.930Z,13.10
2022-09-21T20:28:52.863Z,15.40
2022-09-21T20:33:55.481Z,13.80
2022-09-21T20:39:00.036Z,10.40
2022-09-21T20:44:02.814Z,9.20
2022-09-21T20:49:08.278Z,5.60
2022-09-21T20:54:11.590Z,5.90
2022-09-21T20:59:15.005Z,3.40
2022-09-21T21:04:17.736Z,4.30
2022-09-21T21:09:20.711Z,4.70
2022-09-21T21:14:23.352Z,5.20
2022-09-21T21:19:26.218Z,4.60
2022-09-21T21:24:41.198Z,5.10
2022-09-21T21:29:51.371Z,4.20
2022-09-21T21:34:55.761Z,4.40
2022-09-21T21:39:58.711Z,5.60
2022-09-21T21:45:01.825Z,3.70
2022-09-21T21:50:04.830Z,2.40
2022-09-21T21:55:08.483Z,5.70
2022-09-21T22:00:12.387Z,6.50
2022-09-21T22:05:15.061Z,4.60
2022-09-21T22:10:17.690Z,6.70
2022-09-21T22:15:20.374Z,5.30
2022-09-21T22:20:23.897Z,5.20
2022-09-21T22:25:26.702Z,8.50
2022-09-21T22:30:29.391Z,6.30
2022-09-21T22:35:32.687Z,4.20
2022-09-21T22:40:35.381Z,8.50
2022-09-21T22:45:38.188Z,6.60
2022-09-21T22:50:43.566Z,4.50
2022-09-21T22:55:46.582Z,5.70
2022-09-21T23:00:49.274Z,6.50
2022-09-21T23:05:59.073Z,4.30
2022-09-21T23:11:12.315Z,4.00
2022-09-21T23:16:16.011Z,4.10
2022-09-21T23:21:21.565Z,4.50
2022-09-21T23:26:26.138Z,6.30
2022-09-21T23:31:31.655Z,5.70
2022-09-21T23:36:36.031Z,3.60
2022-09-21T23:41:39.652Z,6.20
2022-09-21T23:46:42.716Z,5.00
2022-09-21T23:51:45.546Z,3.60
2022-09-21T23:56:48.162Z,6.70
